Time;durP1;ratioP1;P1;durP2;ratioP2;P2;SDS_P1;SDS_P2;PMS_P1;PMS_P2;Temp;Humidity;BMP_temperature;BMP_pressure;BME280_temperature;BME280_humidity;BME280_pressure;Samples;Min_cycle;Max_cycle;Signal;HPM_P1;HPM_P2
2023/12/05 00:00:51;;;;;;;32.58;18.88;;;;;;;-146.27;88.29;34122.81;5094505;28;20028;-69
2023/12/05 00:03:17;;;;;;;37.85;21.10;;;;;;;-146.27;88.41;34112.88;5108028;28;20014;-70
2023/12/05 00:05:42;;;;;;;34.22;19.00;;;;;;;-146.27;88.25;34061.28;5102717;28;20100;-69
2023/12/05 00:08:07;;;;;;;36.38;20.75;;;;;;;-146.27;88.25;34106.94;5099779;28;20032;-68
2023/12/05 00:10:33;;;;;;;37.70;20.65;;;;;;;-146.27;89.07;34140.66;5104716;28;20035;-70
2023/12/05 00:13:00;;;;;;;36.35;20.13;;;;;;;-146.27;88.75;34114.88;5108220;28;20032;-71
2023/12/05 00:15:26;;;;;;;36.80;20.60;;;;;;;-146.27;88.50;34100.97;5096547;28;20082;-70
2023/12/05 00:17:51;;;;;;;36.50;20.70;;;;;;;-146.27;88.25;34122.81;5095202;28;20031;-71
2023/12/05 00:20:17;;;;;;;35.33;20.15;;;;;;;-146.27;88.20;34089.06;5105379;28;20032;-70
2023/12/05 00:22:42;;;;;;;39.05;21.52;;;;;;;-146.27;88.06;34116.84;5097867;28;20027;-71
2023/12/05 00:25:08;;;;;;;37.60;20.73;;;;;;;-146.27;88.04;34116.84;5092042;28;20065;-70
2023/12/05 00:27:34;;;;;;;37.60;21.85;;;;;;;-146.27;88.24;34124.78;5091614;28;20130;-70
2023/12/05 00:29:59;;;;;;;41.13;23.15;;;;;;;-146.27;88.00;34100.97;5099434;28;20444;-70
2023/12/05 00:32:24;;;;;;;43.97;23.60;;;;;;;-146.27;88.06;34097.00;5088990;28;20035;-70
2023/12/05 00:34:50;;;;;;;43.80;23.85;;;;;;;-146.27;88.27;34148.59;5090545;28;20107;-69
2023/12/05 00:37:15;;;;;;;39.88;22.67;;;;;;;-146.27;88.30;34118.84;5102762;28;20097;-70
2023/12/05 00:39:41;;;;;;;41.13;21.95;;;;;;;-146.27;88.03;34124.78;5096267;28;20052;-70
2023/12/05 00:42:07;;;;;;;41.25;22.17;;;;;;;-146.27;88.38;34140.66;5106495;28;20028;-71
2023/12/05 00:44:33;;;;;;;44.38;24.08;;;;;;;-146.27;88.22;34140.66;5097573;28;20043;-70
2023/12/05 00:47:03;;;;;;;46.63;25.33;;;;;;;-146.27;88.10;34134.72;5089358;28;20426;-70
2023/12/05 00:49:28;;;;;;;45.60;24.42;;;;;;;-146.27;88.05;34140.66;5092906;28;20396;-70
2023/12/05 00:51:54;;;;;;;49.60;24.73;;;;;;;-146.27;88.16;34093.03;5091788;28;20073;-69
2023/12/05 00:54:19;;;;;;;45.47;23.95;;;;;;;-146.27;88.15;34126.78;5101400;28;20072;-70
2023/12/05 00:56:44;;;;;;;50.80;24.50;;;;;;;-146.27;88.19;34140.66;5101210;28;20027;-69
2023/12/05 00:59:10;;;;;;;43.60;24.00;;;;;;;-146.27;88.50;34130.75;5096679;28;20049;-70
2023/12/05 01:01:35;;;;;;;46.40;23.83;;;;;;;-146.27;88.56;34146.63;5097254;28;20151;-70
2023/12/05 01:04:01;;;;;;;45.10;24.88;;;;;;;-146.27;88.67;34093.03;5096241;28;20130;-70
2023/12/05 01:06:26;;;;;;;44.33;23.85;;;;;;;-146.27;88.58;34108.91;5097589;28;20015;-69
2023/12/05 01:08:51;;;;;;;45.83;25.48;;;;;;;-146.27;88.93;34166.47;5097173;28;20023;-69
2023/12/05 01:11:17;;;;;;;44.80;24.35;;;;;;;-146.27;88.94;34186.31;5100971;28;20436;-69
2023/12/05 01:13:46;;;;;;;44.95;24.67;;;;;;;-146.27;88.51;34158.53;5087298;28;20460;-70
2023/12/05 01:16:11;;;;;;;53.65;25.65;;;;;;;-146.27;88.99;34136.69;5095581;28;20024;-69
2023/12/05 01:18:37;;;;;;;49.45;23.85;;;;;;;-146.27;88.89;34180.34;5096850;28;20049;-69
2023/12/05 01:21:03;;;;;;;46.33;24.15;;;;;;;-146.27;88.64;34142.66;5097585;28;20035;-69
2023/12/05 01:23:28;;;;;;;48.55;24.92;;;;;;;-146.27;88.54;34172.41;5085269;28;20027;-70
2023/12/05 01:25:55;;;;;;;49.70;25.27;;;;;;;-146.27;88.59;34128.75;5093342;28;20427;-69
2023/12/05 01:28:20;;;;;;;46.22;23.83;;;;;;;-146.27;88.87;34164.47;5097790;28;20051;-69
2023/12/05 01:30:46;;;;;;;51.50;23.95;;;;;;;-146.27;88.62;34152.56;5102397;28;20032;-68
2023/12/05 01:33:11;;;;;;;42.30;22.92;;;;;;;-146.27;88.55;34134.72;5104415;28;20027;-69
2023/12/05 01:35:37;;;;;;;43.28;23.35;;;;;;;-146.27;88.34;34108.91;5100184;28;20030;-69
2023/12/05 01:38:03;;;;;;;45.05;23.40;;;;;;;-146.27;88.16;34132.72;5098940;28;20035;-68
2023/12/05 01:40:28;;;;;;;46.30;24.02;;;;;;;-146.27;88.19;34144.63;5101667;28;20514;-69
2023/12/05 01:42:53;;;;;;;45.60;22.77;;;;;;;-146.27;88.50;34128.75;5107242;28;20524;-69
2023/12/05 01:45:19;;;;;;;49.35;24.35;;;;;;;-146.27;88.57;34112.88;5106289;28;20051;-70
2023/12/05 01:47:44;;;;;;;47.67;24.10;;;;;;;-146.27;88.52;34126.78;5097924;28;20028;-69
2023/12/05 01:50:22;;;;;;;45.70;22.95;;;;;;;-146.27;89.21;34154.56;5094505;28;22272;-69
2023/12/05 01:52:51;;;;;;;48.58;23.88;;;;;;;-146.27;88.49;34128.75;5099532;28;20027;-69
2023/12/05 01:55:17;;;;;;;46.55;22.52;;;;;;;-146.27;88.16;34132.72;5101659;28;20031;-69
2023/12/05 01:57:43;;;;;;;46.40;24.13;;;;;;;-146.27;88.41;34132.72;5101751;28;20701;-70
2023/12/05 02:00:09;;;;;;;39.95;21.48;;;;;;;-146.27;88.30;34144.63;5100311;28;20058;-69
2023/12/05 02:02:35;;;;;;;50.72;24.90;;;;;;;-146.27;88.37;34089.06;5105656;28;20035;-70
2023/12/05 02:05:04;;;;;;;44.00;21.65;;;;;;;-146.27;88.40;34134.72;5107499;28;20024;-69
2023/12/05 02:07:31;;;;;;;45.38;21.17;;;;;;;-146.27;88.19;34164.47;5108163;28;20061;-69
2023/12/05 02:09:57;;;;;;;46.17;21.92;;;;;;;-146.27;88.65;34164.47;5104620;28;20024;-69
2023/12/05 02:12:22;;;;;;;42.95;22.02;;;;;;;-146.27;88.37;34128.75;5101052;28;20028;-70
2023/12/05 02:14:48;;;;;;;44.40;22.35;;;;;;;-146.27;88.59;34099.00;5109486;28;20169;-70
2023/12/05 02:17:16;;;;;;;38.35;19.92;;;;;;;-146.27;88.64;34132.72;5094524;28;20353;-69
2023/12/05 02:19:42;;;;;;;44.25;20.73;;;;;;;-146.27;88.07;34126.78;5100023;28;20027;-70
2023/12/05 02:22:34;;;;;;;41.13;20.77;;;;;;;-146.27;88.51;34138.69;5092488;28;20146;-69
2023/12/05 02:25:16;;;;;;;42.05;21.23;;;;;;;-146.27;88.75;34150.59;5096210;28;20073;-69
2023/12/05 02:27:42;;;;;;;42.17;21.20;;;;;;;-146.27;88.64;34128.75;5092886;28;20040;-69
2023/12/05 02:30:09;;;;;;;39.92;20.00;;;;;;;-146.27;88.99;34152.56;5075535;28;20055;-70
2023/12/05 02:32:34;;;;;;;37.17;20.30;;;;;;;-146.27;88.81;34178.38;5103831;28;20383;-70
2023/12/05 02:35:00;;;;;;;44.15;21.20;;;;;;;-146.27;88.72;34170.44;5113494;27;20019;-69
2023/12/05 02:37:47;;;;;;;45.25;21.50;;;;;;;-146.27;88.71;34136.69;5098106;28;20027;-69
2023/12/05 02:40:20;;;;;;;44.85;21.30;;;;;;;-146.27;88.83;34138.69;5099762;28;20107;-70
2023/12/05 02:42:48;;;;;;;39.67;21.02;;;;;;;-146.27;88.59;34160.50;5092993;28;20015;-70
2023/12/05 02:45:18;;;;;;;36.63;20.73;;;;;;;-146.27;88.26;34112.88;5098865;28;20020;-70
2023/12/05 02:47:47;;;;;;;39.65;19.02;;;;;;;-146.27;88.52;34116.84;5096397;28;20038;-70
2023/12/05 02:50:13;;;;;;;39.00;19.65;;;;;;;-146.27;88.65;34152.56;5096854;28;20074;-70
2023/12/05 02:52:38;;;;;;;46.22;20.67;;;;;;;-146.27;88.33;34176.38;5104811;28;20056;-69
2023/12/05 02:55:04;;;;;;;41.38;19.95;;;;;;;-146.27;88.80;34172.41;5099675;28;20541;-68
2023/12/05 02:57:29;;;;;;;41.28;20.48;;;;;;;-146.27;89.00;34164.47;5093786;28;20073;-69
2023/12/05 02:59:54;;;;;;;43.95;20.40;;;;;;;-146.27;88.62;34188.28;5108488;28;20083;-69
2023/12/05 03:02:20;;;;;;;39.58;20.05;;;;;;;-146.27;88.89;34168.44;5099561;28;20031;-69
2023/12/05 03:04:45;;;;;;;38.88;19.50;;;;;;;-146.27;88.83;34182.34;5109392;28;20386;-68
2023/12/05 03:07:10;;;;;;;38.88;19.42;;;;;;;-146.27;88.70;34160.50;5103257;28;20045;-68
2023/12/05 03:09:36;;;;;;;39.75;20.45;;;;;;;-146.27;88.88;34168.44;5106759;28;20032;-70
2023/12/05 03:12:02;;;;;;;48.17;20.83;;;;;;;-146.27;88.40;34128.75;5097241;28;20048;-68
2023/12/05 03:14:27;;;;;;;36.83;19.67;;;;;;;-146.27;88.59;34166.47;5107483;28;20080;-69
2023/12/05 03:16:52;;;;;;;36.97;19.02;;;;;;;-146.27;88.21;34142.66;5099495;28;20165;-69
2023/12/05 03:19:18;;;;;;;40.67;19.55;;;;;;;-146.27;88.18;34152.56;5097803;28;20027;-70
2023/12/05 03:21:45;;;;;;;38.58;19.67;;;;;;;-146.27;88.21;34112.88;5101101;28;20083;-70
2023/12/05 03:24:10;;;;;;;39.95;19.48;;;;;;;-146.27;88.62;34180.34;5094014;28;20058;-69
2023/12/05 03:26:36;;;;;;;39.20;18.52;;;;;;;-146.27;88.64;34178.38;5098505;28;20051;-70
2023/12/05 03:29:01;;;;;;;36.38;18.92;;;;;;;-146.27;89.00;34190.28;5108013;28;20028;-70
2023/12/05 03:31:26;;;;;;;41.50;19.90;;;;;;;-146.27;88.51;34128.75;5101866;28;20026;-69
2023/12/05 03:33:52;;;;;;;41.72;20.17;;;;;;;-146.27;88.21;34120.81;5092303;28;20359;-70
2023/12/05 03:36:17;;;;;;;39.45;19.67;;;;;;;-146.27;88.55;34106.94;5090802;28;20020;-69
2023/12/05 03:38:43;;;;;;;41.10;19.92;;;;;;;-146.27;88.57;34166.47;5096427;28;20015;-70
2023/12/05 03:41:09;;;;;;;48.30;20.95;;;;;;;-146.27;88.69;34184.31;5096081;28;20610;-69
2023/12/05 03:43:34;;;;;;;45.67;20.13;;;;;;;-146.27;88.70;34148.59;5110544;28;20031;-70
2023/12/05 03:46:00;;;;;;;38.97;19.38;;;;;;;-146.27;88.32;34164.47;5104797;28;20023;-69
2023/12/05 03:48:26;;;;;;;42.65;20.00;;;;;;;-146.27;88.49;34160.50;5107656;28;20540;-70
2023/12/05 03:50:51;;;;;;;38.33;19.10;;;;;;;-146.27;88.26;34166.47;5093045;28;20028;-68
2023/12/05 03:53:17;;;;;;;36.72;18.30;;;;;;;-146.27;88.58;34172.41;5099538;28;20371;-68
2023/12/05 03:55:42;;;;;;;36.28;17.40;;;;;;;-146.27;88.47;34206.16;5103766;28;20024;-69
2023/12/05 03:58:08;;;;;;;34.40;16.08;;;;;;;-146.27;88.85;34186.31;5094780;28;20445;-69
2023/12/05 04:00:33;;;;;;;32.38;16.85;;;;;;;-146.27;88.46;34164.47;5086099;28;20019;-70
2023/12/05 04:02:59;;;;;;;34.65;17.45;;;;;;;-146.27;88.62;34136.69;5096892;28;20027;-69
2023/12/05 04:05:24;;;;;;;39.10;17.63;;;;;;;-146.27;88.56;34160.50;5100955;28;20918;-69
2023/12/05 04:07:49;;;;;;;33.38;17.05;;;;;;;-146.27;88.59;34166.47;5090293;28;20452;-71
2023/12/05 04:10:15;;;;;;;36.35;17.10;;;;;;;-146.27;88.48;34128.75;5106818;28;20072;-70
2023/12/05 04:12:40;;;;;;;34.58;17.85;;;;;;;-146.27;88.20;34184.31;5101508;28;20023;-69
2023/12/05 04:15:07;;;;;;;34.30;16.60;;;;;;;-146.27;88.63;34160.50;5099178;28;20550;-68
2023/12/05 04:17:32;;;;;;;35.42;17.70;;;;;;;-146.27;88.40;34168.44;5103728;28;20490;-68
2023/12/05 04:19:58;;;;;;;43.03;19.02;;;;;;;-146.27;88.73;34208.13;5109246;28;20020;-68
2023/12/05 04:22:23;;;;;;;35.95;18.75;;;;;;;-146.27;88.60;34178.38;5104590;28;20042;-70
2023/12/05 04:24:49;;;;;;;40.10;18.90;;;;;;;-146.27;88.53;34178.38;5107301;28;20034;-70
2023/12/05 04:27:14;;;;;;;38.92;19.77;;;;;;;-146.27;88.21;34168.44;5093842;28;20066;-70
2023/12/05 04:29:39;;;;;;;37.97;20.50;;;;;;;-146.27;88.59;34158.53;5106184;28;20032;-68
2023/12/05 04:32:06;;;;;;;39.53;18.67;;;;;;;-146.27;88.74;34176.38;5100216;28;20153;-68
2023/12/05 04:34:32;;;;;;;46.22;20.23;;;;;;;-146.27;88.51;34150.59;5088950;28;20028;-68
2023/12/05 04:36:57;;;;;;;35.75;18.73;;;;;;;-146.27;88.93;34166.47;5099149;28;20034;-69
2023/12/05 04:39:22;;;;;;;40.03;20.45;;;;;;;-146.27;88.36;34180.34;5088944;28;20032;-69
2023/12/05 04:41:48;;;;;;;36.58;18.83;;;;;;;-146.27;88.56;34192.25;5100054;28;20031;-69
2023/12/05 04:44:13;;;;;;;41.45;21.23;;;;;;;-146.27;88.59;34192.25;5102312;28;20494;-69
2023/12/05 04:46:38;;;;;;;42.38;19.48;;;;;;;-146.27;88.32;34182.34;5106252;28;20023;-69
2023/12/05 04:49:05;;;;;;;37.42;17.65;;;;;;;-146.27;88.48;34194.25;5099587;28;20067;-68
2023/12/05 04:51:30;;;;;;;43.78;20.02;;;;;;;-146.27;88.18;34180.34;5108248;28;20034;-68
2023/12/05 04:53:56;;;;;;;48.45;21.20;;;;;;;-146.27;88.18;34180.34;5111450;28;20476;-69
2023/12/05 04:56:22;;;;;;;40.72;19.02;;;;;;;-146.27;87.98;34158.53;5097493;28;20479;-69
2023/12/05 04:58:47;;;;;;;46.85;20.90;;;;;;;-146.27;88.42;34188.28;5094038;28;20032;-69
2023/12/05 05:01:13;;;;;;;46.13;20.58;;;;;;;-146.27;88.36;34180.34;5093925;28;20479;-69
2023/12/05 05:03:38;;;;;;;47.30;21.95;;;;;;;-146.27;88.16;34166.47;5095137;28;20032;-69
2023/12/05 05:06:04;;;;;;;49.58;22.23;;;;;;;-146.27;87.84;34180.34;5112023;28;20468;-68
2023/12/05 05:08:30;;;;;;;47.08;21.33;;;;;;;-146.27;87.97;34190.28;5096507;28;20455;-69
2023/12/05 05:10:55;;;;;;;46.80;20.90;;;;;;;-146.27;88.50;34178.38;5108255;28;20088;-67
2023/12/05 05:13:20;;;;;;;45.15;20.40;;;;;;;-146.27;88.49;34172.41;5102818;28;20071;-70
2023/12/05 05:15:45;;;;;;;47.22;22.15;;;;;;;-146.27;88.61;34226.00;5101805;28;20027;-69
2023/12/05 05:18:11;;;;;;;49.83;20.85;;;;;;;-146.27;88.83;34214.09;5096782;28;20053;-69
2023/12/05 05:20:36;;;;;;;45.05;21.70;;;;;;;-146.27;88.37;34212.09;5106128;28;20042;-69
2023/12/05 05:23:02;;;;;;;50.20;21.95;;;;;;;-146.27;88.69;34218.06;5094551;28;20437;-69
2023/12/05 05:25:27;;;;;;;40.95;19.77;;;;;;;-146.27;88.30;34160.50;5098787;28;20395;-69
2023/12/05 05:27:52;;;;;;;47.30;20.75;;;;;;;-146.27;88.40;34188.28;5108916;28;20048;-69
2023/12/05 05:30:18;;;;;;;46.70;20.77;;;;;;;-146.27;88.29;34220.06;5100722;28;20384;-69
2023/12/05 05:32:43;;;;;;;54.30;21.05;;;;;;;-146.27;88.46;34204.16;5094323;28;20103;-69
2023/12/05 05:35:09;;;;;;;47.03;20.15;;;;;;;-146.27;88.50;34202.19;5105190;28;20042;-68
2023/12/05 05:37:34;;;;;;;50.75;22.90;;;;;;;-146.27;87.98;34198.22;5098337;28;20028;-68
2023/12/05 05:40:00;;;;;;;47.00;21.92;;;;;;;-146.27;88.32;34194.25;5096167;28;20027;-70
2023/12/05 05:42:25;;;;;;;48.40;21.85;;;;;;;-146.27;88.45;34164.47;5075301;28;20472;-70
2023/12/05 05:44:51;;;;;;;49.03;20.55;;;;;;;-146.27;88.24;34204.16;5099200;28;20031;-69
2023/12/05 05:47:16;;;;;;;48.38;21.05;;;;;;;-146.27;88.13;34220.06;5100527;28;20453;-69
2023/12/05 05:49:43;;;;;;;49.40;22.17;;;;;;;-146.27;87.99;34214.09;5106093;28;20038;-68
2023/12/05 05:52:08;;;;;;;44.25;18.83;;;;;;;-146.27;88.35;34220.06;5095047;28;20420;-69
2023/12/05 05:54:33;;;;;;;48.17;21.10;;;;;;;-146.27;88.41;34226.00;5101076;28;20027;-70
2023/12/05 05:56:59;;;;;;;43.53;21.05;;;;;;;-146.27;88.20;34200.19;5103221;28;20026;-70
2023/12/05 05:59:24;;;;;;;43.65;20.20;;;;;;;-146.27;88.29;34188.28;5095583;28;20845;-70
2023/12/05 06:01:49;;;;;;;47.75;20.98;;;;;;;-146.27;88.26;34180.34;5095792;28;20572;-69
2023/12/05 06:04:15;;;;;;;40.85;18.50;;;;;;;-146.27;88.35;34198.22;5100842;28;20473;-69
2023/12/05 06:06:40;;;;;;;36.85;19.65;;;;;;;-146.27;88.26;34196.22;5101165;28;20111;-70
2023/12/05 06:09:05;;;;;;;50.38;19.98;;;;;;;-146.27;88.32;34208.13;5099996;28;20047;-70
2023/12/05 06:11:31;;;;;;;44.17;19.85;;;;;;;-146.27;88.30;34194.25;5100736;28;20027;-69
2023/12/05 06:13:56;;;;;;;47.42;20.33;;;;;;;-146.27;88.91;34212.09;5100471;28;20104;-69
2023/12/05 06:16:22;;;;;;;44.60;20.98;;;;;;;-146.27;88.32;34192.25;5097121;28;20481;-69
2023/12/05 06:18:47;;;;;;;43.83;19.75;;;;;;;-146.27;88.64;34184.31;5094853;28;20418;-71
2023/12/05 06:21:13;;;;;;;44.75;19.77;;;;;;;-146.27;88.46;34212.09;5101115;28;20094;-70
2023/12/05 06:23:38;;;;;;;42.50;19.77;;;;;;;-146.27;88.30;34186.31;5109209;28;20027;-70
2023/12/05 06:26:04;;;;;;;43.55;19.48;;;;;;;-146.27;88.46;34222.03;5107876;28;20491;-70
2023/12/05 06:28:30;;;;;;;45.90;20.73;;;;;;;-146.27;88.48;34200.19;5097272;28;20040;-70
2023/12/05 06:30:55;;;;;;;43.65;18.80;;;;;;;-146.27;88.75;34237.91;5109827;28;20537;-69
2023/12/05 06:33:21;;;;;;;46.92;21.20;;;;;;;-146.27;88.83;34224.03;5092834;28;20389;-70
2023/12/05 06:35:46;;;;;;;48.70;21.48;;;;;;;-146.27;88.78;34162.50;5099628;28;20391;-69
2023/12/05 06:38:11;;;;;;;53.00;21.60;;;;;;;-146.27;88.38;34200.19;5103276;28;20028;-70
2023/12/05 06:40:37;;;;;;;51.92;23.10;;;;;;;-146.27;88.59;34222.03;5085592;28;20031;-68
2023/12/05 06:43:02;;;;;;;45.85;20.45;;;;;;;-146.27;88.56;34196.22;5102504;28;20020;-69
2023/12/05 06:45:28;;;;;;;44.25;20.02;;;;;;;-146.27;88.69;34204.16;5099675;28;20011;-71
2023/12/05 06:47:53;;;;;;;52.58;21.13;;;;;;;-146.27;88.69;34200.19;5100806;28;20047;-69
2023/12/05 06:50:19;;;;;;;51.83;22.63;;;;;;;-146.27;88.43;34192.25;5098196;28;20027;-69
2023/12/05 06:52:44;;;;;;;52.28;22.08;;;;;;;-146.27;88.52;34188.28;5100649;28;20643;-70
2023/12/05 06:55:10;;;;;;;47.80;22.10;;;;;;;-146.27;88.67;34204.16;5094541;28;20052;-70
2023/12/05 06:57:35;;;;;;;46.20;21.15;;;;;;;-146.27;88.52;34208.13;5091484;28;20024;-70
2023/12/05 07:00:03;;;;;;;52.97;21.67;;;;;;;-146.27;88.80;34212.09;5103491;28;20028;-70
2023/12/05 07:02:29;;;;;;;47.67;21.40;;;;;;;-146.27;88.50;34228.00;5095571;28;20030;-70
2023/12/05 07:04:57;;;;;;;48.38;23.02;;;;;;;-146.27;88.51;34172.41;5097730;28;20039;-70
2023/12/05 07:07:24;;;;;;;46.67;21.58;;;;;;;-146.27;88.46;34168.44;5097975;28;20042;-70
2023/12/05 07:09:49;;;;;;;47.10;21.58;;;;;;;-146.27;88.78;34206.16;5097699;28;20059;-70
2023/12/05 07:12:14;;;;;;;46.50;20.42;;;;;;;-146.27;88.71;34192.25;5090712;28;20039;-71
2023/12/05 07:14:40;;;;;;;45.58;21.02;;;;;;;-146.27;88.80;34196.22;5100156;28;20023;-70
2023/12/05 07:17:05;;;;;;;50.75;22.45;;;;;;;-146.27;88.61;34218.06;5105157;28;20077;-69
2023/12/05 07:19:31;;;;;;;50.42;22.25;;;;;;;-146.27;89.26;34214.09;5110591;28;20023;-69
2023/12/05 07:21:56;;;;;;;47.78;21.60;;;;;;;-146.27;88.91;34200.19;5108250;28;20026;-69
2023/12/05 07:24:21;;;;;;;51.10;22.75;;;;;;;-146.27;88.62;34224.03;5090604;28;20104;-70
2023/12/05 07:26:48;;;;;;;47.95;21.50;;;;;;;-146.27;88.57;34194.25;5096946;28;20040;-71
2023/12/05 07:29:13;;;;;;;46.25;21.23;;;;;;;-146.27;88.72;34204.16;5105233;28;20044;-71
2023/12/05 07:31:39;;;;;;;46.88;20.58;;;;;;;-146.27;88.91;34224.03;5095808;28;20027;-70
2023/12/05 07:34:04;;;;;;;50.95;21.77;;;;;;;-146.27;88.84;34229.97;5106356;28;20059;-70
2023/12/05 07:36:30;;;;;;;46.78;22.15;;;;;;;-146.27;88.48;34188.28;5099156;28;20058;-70
2023/12/05 07:38:55;;;;;;;47.35;20.77;;;;;;;-146.27;88.51;34200.19;5090860;28;20028;-71
2023/12/05 07:41:24;;;;;;;49.10;22.58;;;;;;;-146.27;89.11;34202.19;5090392;28;20055;-68
2023/12/05 07:43:50;;;;;;;46.08;21.63;;;;;;;-146.27;89.00;34208.13;5102277;28;20067;-69
2023/12/05 07:46:16;;;;;;;51.30;23.10;;;;;;;-146.27;88.94;34220.06;5110354;28;20432;-70
2023/12/05 07:48:42;;;;;;;54.85;21.45;;;;;;;-146.27;88.94;34212.09;5110904;28;20062;-69
2023/12/05 07:51:08;;;;;;;49.33;22.35;;;;;;;-146.27;89.23;34224.03;5110581;28;20047;-70
2023/12/05 07:53:33;;;;;;;59.85;23.13;;;;;;;-146.27;89.18;34233.94;5096468;28;20491;-70
2023/12/05 07:55:58;;;;;;;49.67;22.85;;;;;;;-146.27;89.16;34196.22;5099149;28;20065;-70
2023/12/05 07:58:25;;;;;;;53.22;23.08;;;;;;;-146.27;89.05;34192.25;5098986;28;20032;-70
2023/12/05 08:00:50;;;;;;;53.40;22.90;;;;;;;-146.27;88.89;34216.09;5098694;28;20039;-71
2023/12/05 08:03:16;;;;;;;59.10;23.13;;;;;;;-146.27;88.94;34224.03;5091402;28;20542;-69
2023/12/05 08:05:41;;;;;;;44.45;19.80;;;;;;;-146.27;88.87;34168.44;5097471;28;20019;-70
2023/12/05 08:08:06;;;;;;;53.33;22.42;;;;;;;-146.27;89.08;34178.38;5091625;28;20081;-70
2023/12/05 08:10:32;;;;;;;53.50;22.48;;;;;;;-146.27;88.88;34192.25;5110551;28;20031;-70
2023/12/05 08:12:57;;;;;;;50.05;22.25;;;;;;;-146.27;89.09;34184.31;5108131;28;20472;-69
2023/12/05 08:15:22;;;;;;;53.65;23.08;;;;;;;-146.27;88.52;34154.56;5106554;28;20497;-70
2023/12/05 08:17:48;;;;;;;50.78;22.20;;;;;;;-146.27;88.57;34170.44;5110359;28;20046;-69
2023/12/05 08:20:13;;;;;;;50.42;21.73;;;;;;;-146.27;88.64;34212.09;5094370;28;20566;-70
2023/12/05 08:22:40;;;;;;;51.30;22.80;;;;;;;-146.27;88.93;34192.25;5093624;28;20053;-69
2023/12/05 08:25:07;;;;;;;51.80;21.55;;;;;;;-146.27;89.02;34152.56;5091062;28;20111;-70
2023/12/05 08:27:33;;;;;;;51.10;21.85;;;;;;;-146.27;89.02;34114.88;5089827;28;20058;-69
2023/12/05 08:29:59;;;;;;;55.13;23.50;;;;;;;-146.27;88.78;34178.38;5089752;28;20165;-69
2023/12/05 08:32:24;;;;;;;56.50;23.02;;;;;;;-146.27;89.02;34160.50;5090158;28;20032;-69
2023/12/05 08:34:50;;;;;;;56.83;22.77;;;;;;;-146.27;88.98;34063.28;5089974;28;20032;-69
2023/12/05 08:37:15;;;;;;;53.65;22.38;;;;;;;-146.27;88.75;34160.50;5091167;28;20016;-70
2023/12/05 08:39:41;;;;;;;58.13;22.33;;;;;;;-146.27;88.82;34122.81;5093283;28;20157;-70
2023/12/05 08:42:06;;;;;;;58.08;23.38;;;;;;;-146.27;89.16;34156.53;5092196;28;20024;-70
2023/12/05 08:44:32;;;;;;;51.63;22.15;;;;;;;-146.27;88.94;34160.50;5096222;28;20115;-70
2023/12/05 08:46:57;;;;;;;56.05;22.33;;;;;;;-146.27;89.10;34176.38;5098704;28;20030;-70
2023/12/05 08:49:23;;;;;;;53.47;22.75;;;;;;;-146.27;88.93;34136.69;5102123;28;20058;-68
2023/12/05 08:51:48;;;;;;;52.50;21.83;;;;;;;-146.27;89.06;34148.59;5090748;28;20069;-70
2023/12/05 08:54:13;;;;;;;56.13;20.17;;;;;;;-146.27;88.86;34130.75;5101130;28;20380;-69
2023/12/05 08:56:39;;;;;;;53.45;22.08;;;;;;;-146.27;88.57;34166.47;5107862;28;20328;-69
2023/12/05 08:59:04;;;;;;;48.28;20.45;;;;;;;-146.27;88.86;34132.72;5080343;28;20139;-70
2023/12/05 09:01:29;;;;;;;48.58;22.55;;;;;;;-146.27;88.69;34126.78;5091000;28;20028;-70
2023/12/05 09:03:55;;;;;;;53.13;21.00;;;;;;;-146.27;88.58;34116.84;5089761;28;20102;-69
2023/12/05 09:06:20;;;;;;;56.85;21.58;;;;;;;-146.27;88.77;34150.59;5098370;28;20114;-69
2023/12/05 09:08:45;;;;;;;59.50;23.45;;;;;;;-146.27;88.91;34170.44;5102455;28;20047;-70
2023/12/05 09:11:14;;;;;;;57.17;22.33;;;;;;;-146.27;88.56;34168.44;5089755;28;20027;-69
2023/12/05 09:13:39;;;;;;;57.08;22.75;;;;;;;-146.27;88.24;34132.72;5090671;28;20553;-69
2023/12/05 09:16:05;;;;;;;62.10;21.98;;;;;;;-146.27;88.70;34192.25;5091298;28;20054;-68
2023/12/05 09:18:31;;;;;;;68.22;22.63;;;;;;;-146.27;88.45;34156.53;5090287;28;20024;-69
2023/12/05 09:20:57;;;;;;;60.85;23.30;;;;;;;-146.27;88.54;34158.53;5093301;28;20099;-69
2023/12/05 09:23:23;;;;;;;53.70;22.52;;;;;;;-146.27;88.47;34150.59;5101313;28;20037;-70
2023/12/05 09:25:48;;;;;;;59.13;23.50;;;;;;;-146.27;88.70;34188.28;5099019;28;20032;-70
2023/12/05 09:28:14;;;;;;;58.33;23.30;;;;;;;-146.27;88.53;34136.69;5092476;28;20075;-70
2023/12/05 09:30:39;;;;;;;62.67;22.80;;;;;;;-146.27;89.16;34182.34;5093260;28;20028;-69
2023/12/05 09:33:05;;;;;;;59.78;23.73;;;;;;;-146.27;88.91;34208.13;5093344;28;20023;-68
2023/12/05 09:35:30;;;;;;;66.45;24.27;;;;;;;-146.27;88.78;34154.56;5093713;28;20092;-70
2023/12/05 09:37:56;;;;;;;64.55;25.05;;;;;;;-146.27;88.53;34112.88;5102253;28;20024;-70
2023/12/05 09:40:22;;;;;;;63.03;25.13;;;;;;;-146.27;88.84;34136.69;5095569;28;20103;-69
2023/12/05 09:42:48;;;;;;;60.75;24.00;;;;;;;-146.27;89.13;34186.31;5103019;28;20027;-68
2023/12/05 09:45:15;;;;;;;70.45;26.65;;;;;;;-146.27;88.90;34162.50;5093839;28;20102;-68
2023/12/05 09:47:46;;;;;;;63.28;24.58;;;;;;;-146.27;88.74;34152.56;5094441;28;20035;-70
2023/12/05 09:50:12;;;;;;;69.20;26.33;;;;;;;-146.27;89.02;34166.47;5102083;28;20027;-69
2023/12/05 09:52:37;;;;;;;59.92;23.17;;;;;;;-146.27;88.93;34136.69;5086181;28;20038;-69
2023/12/05 09:55:04;;;;;;;63.85;25.45;;;;;;;-146.27;89.18;34208.13;5094184;28;20051;-67
2023/12/05 09:57:29;;;;;;;72.43;24.88;;;;;;;-146.27;88.62;34126.78;5096510;28;20032;-68
2023/12/05 09:59:55;;;;;;;68.93;25.88;;;;;;;-146.27;88.87;34112.88;5097864;28;20031;-68
2023/12/05 10:02:23;;;;;;;63.47;24.52;;;;;;;-146.27;88.66;34168.44;5103333;28;20024;-69
2023/12/05 10:04:54;;;;;;;65.57;24.80;;;;;;;-146.27;88.42;34188.28;5094940;28;20110;-69
2023/12/05 10:07:21;;;;;;;59.53;25.75;;;;;;;-146.27;88.78;34176.38;5104531;28;20023;-68
2023/12/05 10:09:49;;;;;;;66.63;26.50;;;;;;;-146.27;88.35;34124.78;5110326;28;20753;-69
2023/12/05 10:12:14;;;;;;;65.93;23.10;;;;;;;-146.27;88.18;34166.47;5110190;28;20487;-70
2023/12/05 10:14:40;;;;;;;57.38;23.55;;;;;;;-146.27;88.38;34122.81;5097162;28;20078;-69
2023/12/05 10:17:07;;;;;;;64.03;24.52;;;;;;;-146.27;88.49;34166.47;5097794;28;20031;-69
2023/12/05 10:19:33;;;;;;;61.45;25.40;;;;;;;-146.27;88.56;34136.69;5092100;28;20028;-70
2023/12/05 10:21:59;;;;;;;69.10;26.23;;;;;;;-146.27;88.54;34128.75;5108905;28;20423;-70
2023/12/05 10:24:44;;;;;;;66.80;26.83;;;;;;;-146.27;88.62;34126.78;5102125;28;20019;-70
2023/12/05 10:27:09;;;;;;;68.38;26.80;;;;;;;-146.27;88.91;34164.47;5077484;28;20032;-68
2023/12/05 10:29:40;;;;;;;63.90;25.92;;;;;;;-146.27;88.59;34138.69;5091865;28;20495;-69
2023/12/05 10:32:07;;;;;;;61.17;24.73;;;;;;;-146.27;88.30;34120.81;5100048;28;20050;-69
2023/12/05 10:34:51;;;;;;;56.58;25.50;;;;;;;-146.27;88.83;34164.47;5110368;28;20450;-70
2023/12/05 10:37:24;;;;;;;54.15;23.80;;;;;;;-146.27;88.87;34168.44;5091346;28;20035;-70
2023/12/05 10:39:51;;;;;;;58.88;26.25;;;;;;;-146.27;88.08;34124.78;5091782;28;20035;-69
2023/12/05 10:42:19;;;;;;;61.95;23.17;;;;;;;-146.27;88.44;34152.56;5095807;28;20063;-69
2023/12/05 10:44:44;;;;;;;61.03;23.75;;;;;;;-146.27;88.10;34156.53;5091597;28;20016;-70
2023/12/05 10:47:11;;;;;;;59.90;24.42;;;;;;;-146.27;88.17;34138.69;5091631;28;20647;-70
2023/12/05 10:49:38;;;;;;;57.17;23.50;;;;;;;-146.27;87.89;34150.59;5091691;28;20024;-69
2023/12/05 10:52:04;;;;;;;58.45;24.00;;;;;;;-146.27;88.08;34130.75;5091569;28;20020;-69
2023/12/05 10:54:30;;;;;;;57.17;23.33;;;;;;;-146.27;87.92;34128.75;5071866;27;20032;-68
2023/12/05 10:56:59;;;;;;;50.95;22.50;;;;;;;-146.27;87.89;34099.00;5113641;27;20025;-69